MiSS Angelica — WDJ5086 — position and weather

sailwx.info

Track history (hours):
 
Tides and Currents Weather Stations Pressure Air Temp Water Temp Dewpoint Dewpoint Depression Visibility Wind Speed Wind Dir Waves Ship Positions

MiSS Angelica

Owner: Russell Marine LLC., Channelview, TX. More information available from US FCC via Universal Licensing System and Coast Guard Vessel Documentation Center.

Last reported at 2017-Nov-14 23:07 UTC. Time now 2017-Nov-20 06:06 UTC.
Position N 29°46' W 095°06'.

Length 17 m; draft 1.5 m.

Type: Towing. MMSI: 367784160.

Date/timePositionNaut miles runAvg speedWind from/ knotsBaromVisibWave heightAir tempDewpointWater temp
2017-Nov-14 23:07N 29°46' W 095°06'2 4.7
2017-Nov-14 22:41N 29°44' W 095°07'1 6.9
2017-Nov-14 22:30N 29°44' W 095°08'4 6.2
2017-Nov-14 21:54N 29°44' W 095°13'1 0.1
2017-Nov-14 14:08N 29°43' W 095°14'4 5.8
2017-Nov-14 13:23N 29°44' W 095°09'  
2017-Nov-09 20:03N 29°44' W 095°08'0 8.9
2017-Nov-09 20:00N 29°44' W 095°09'3 0.1
2017-Nov-08 20:19N 29°46' W 095°05'3 6.7
2017-Nov-08 19:53N 29°44' W 095°08'3 7.3
2017-Nov-08 19:30N 29°45' W 095°11'4 1.1
2017-Nov-08 16:17N 29°43' W 095°15'0 0.8
2017-Nov-08 15:56N 29°43' W 095°15'4 5.8
2017-Nov-08 15:19N 29°45' W 095°11'2 5.7
2017-Nov-08 14:57N 29°44' W 095°09'  
2017-Nov-05 19:44N 29°46' W 095°06'3 4.6
2017-Nov-05 19:06N 29°44' W 095°08'1 7.5
2017-Nov-05 19:00N 29°44' W 095°09'3 6.3
2017-Nov-05 18:29N 29°44' W 095°13'2 4.0
2017-Nov-05 17:56N 29°43' W 095°15'0 0.7
2017-Nov-05 17:28N 29°43' W 095°15'1 2.1
2017-Nov-05 17:00N 29°44' W 095°16'0 0.0
2017-Nov-05 16:30N 29°44' W 095°16'0 0.0
2017-Nov-05 16:00N 29°44' W 095°16'0 0.1
2017-Nov-05 15:30N 29°44' W 095°15'4 5.2
2017-Nov-05 14:47N 29°45' W 095°11'2 5.8
2017-Nov-05 14:30N 29°44' W 095°09'  
Track history (hours):
 
Tides and Currents Weather Stations Pressure Air Temp Water Temp Dewpoint Dewpoint Depression Visibility Wind Speed Wind Dir Waves Ship Positions

MiSS Angelica

Owner: Russell Marine LLC., Channelview, TX. More information available from US FCC via Universal Licensing System and Coast Guard Vessel Documentation Center.

Last reported at 2017-Nov-14 23:07 UTC. Time now 2017-Nov-20 06:06 UTC.
Position N 29°46' W 095°06'.

Length 17 m; draft 1.5 m.

Type: Towing. MMSI: 367784160.

Date/timePositionNaut miles runAvg speedWind from/ knotsBaromVisibWave heightAir tempDewpointWater temp
2017-Nov-14 23:07N 29°46' W 095°06'2 4.7
2017-Nov-14 22:41N 29°44' W 095°07'1 6.9
2017-Nov-14 22:30N 29°44' W 095°08'4 6.2
2017-Nov-14 21:54N 29°44' W 095°13'1 0.1
2017-Nov-14 14:08N 29°43' W 095°14'4 5.8
2017-Nov-14 13:23N 29°44' W 095°09'  
2017-Nov-09 20:03N 29°44' W 095°08'0 8.9
2017-Nov-09 20:00N 29°44' W 095°09'3 0.1
2017-Nov-08 20:19N 29°46' W 095°05'3 6.7
2017-Nov-08 19:53N 29°44' W 095°08'3 7.3
2017-Nov-08 19:30N 29°45' W 095°11'4 1.1
2017-Nov-08 16:17N 29°43' W 095°15'0 0.8
2017-Nov-08 15:56N 29°43' W 095°15'4 5.8
2017-Nov-08 15:19N 29°45' W 095°11'2 5.7
2017-Nov-08 14:57N 29°44' W 095°09'  
2017-Nov-05 19:44N 29°46' W 095°06'3 4.6
2017-Nov-05 19:06N 29°44' W 095°08'1 7.5
2017-Nov-05 19:00N 29°44' W 095°09'3 6.3
2017-Nov-05 18:29N 29°44' W 095°13'2 4.0
2017-Nov-05 17:56N 29°43' W 095°15'0 0.7
2017-Nov-05 17:28N 29°43' W 095°15'1 2.1
2017-Nov-05 17:00N 29°44' W 095°16'0 0.0
2017-Nov-05 16:30N 29°44' W 095°16'0 0.0
2017-Nov-05 16:00N 29°44' W 095°16'0 0.1
2017-Nov-05 15:30N 29°44' W 095°15'4 5.2
2017-Nov-05 14:47N 29°45' W 095°11'2 5.8
2017-Nov-05 14:30N 29°44' W 095°09'  

Dump ship's entire track history